Hauptseite
METAR-TAF:

METAR-TAF

Flughäfen :

Gloucester, England

Breite: 51-54N, Länge: 002-10W, Höhe: 29 m

Beobachtung

Neuester Wetterbericht von vor 14 Minuten, um 13:20 UTC
Wind 7 kt aus West, variierte zwischen Südwest und West/Nordwest
Temperatur 21°C
Luftfeuchtigkeit 38%
Luftdruck 1015 hPa
Sichtweite 10 km oder mehr
Leicht bewölkt in der Höhe von 4700 ft

METAR: EGBJ 231320Z 26007KT 220V300 9999 FEW047 21/06 Q1015

Zeit: 14:34 (13:34 UTC)

Prognose

Neuester Wetterbericht von vor 2 Stunden und 38 Minuten, um 10:56 UTC
Gültige Prognose vom 23 um 12 UTC bis 23 um 19 UTC
Wind 6 kt aus West/Südwest
Sichtweite 10 km oder mehr
Leicht bewölkt in der Höhe von 4500 ft

TAF: EGBJ 231056Z 2312/2319 25006KT 9999 FEW045

Wetterbeobachtungen und Prognosen von mehr als 4000 Flughäfen (METAR und TAF Bericht).

Die verfügbaren Stationen werden durch gelbe und rote Markierungen auf der Karte dargestellt.

Führen Sie die Maus auf sie, um den Namen der Station zu sehen.

Darauf klicken, um die Beobachtung von Wetterbeobachtungen und Prognosen zu sehen.

Um die Karte zu ändern : klicken Sie auf den grünen Tasten mit einem schwarzen Kreuz Zum Vergrößern, auf den grünen Button mit einem Gedankenstrich zu verkleinern, oder auf die grünen Pfeile für benachbarte Karten.


METAR-TAF: